sensor_id;sensor_type;location;lat;lon;timestamp;temperature;humidity
7530;DHT22;3806;52.270;10.544;2023-07-30T00:01:12;19.90;99.90
7530;DHT22;3806;52.270;10.544;2023-07-30T00:03:38;19.90;99.90
7530;DHT22;3806;52.270;10.544;2023-07-30T00:06:03;19.90;99.90
7530;DHT22;3806;52.270;10.544;2023-07-30T00:08:29;19.90;99.90
7530;DHT22;3806;52.270;10.544;2023-07-30T00:10:57;19.90;99.90
7530;DHT22;3806;52.270;10.544;2023-07-30T00:13:23;19.90;99.90
7530;DHT22;3806;52.270;10.544;2023-07-30T00:15:49;19.90;99.90
7530;DHT22;3806;52.270;10.544;2023-07-30T00:18:15;19.90;99.90
7530;DHT22;3806;52.270;10.544;2023-07-30T00:20:41;19.90;99.90
7530;DHT22;3806;52.270;10.544;2023-07-30T00:23:07;19.80;99.90
7530;DHT22;3806;52.270;10.544;2023-07-30T00:25:32;19.80;99.90
7530;DHT22;3806;52.270;10.544;2023-07-30T00:27:58;19.80;99.90
7530;DHT22;3806;52.270;10.544;2023-07-30T00:30:23;19.80;99.90
7530;DHT22;3806;52.270;10.544;2023-07-30T00:32:49;19.80;99.90
7530;DHT22;3806;52.270;10.544;2023-07-30T00:35:14;19.70;99.90
7530;DHT22;3806;52.270;10.544;2023-07-30T00:37:40;19.70;99.90
7530;DHT22;3806;52.270;10.544;2023-07-30T00:40:06;19.70;99.90
7530;DHT22;3806;52.270;10.544;2023-07-30T00:42:32;19.70;99.90
7530;DHT22;3806;52.270;10.544;2023-07-30T00:44:57;19.70;99.90
7530;DHT22;3806;52.270;10.544;2023-07-30T00:47:23;19.60;99.90
7530;DHT22;3806;52.270;10.544;2023-07-30T00:49:49;19.60;99.90
7530;DHT22;3806;52.270;10.544;2023-07-30T00:52:20;19.60;99.90
7530;DHT22;3806;52.270;10.544;2023-07-30T00:54:47;19.60;99.90
7530;DHT22;3806;52.270;10.544;2023-07-30T00:57:13;19.60;99.90
7530;DHT22;3806;52.270;10.544;2023-07-30T00:59:39;19.60;99.90
7530;DHT22;3806;52.270;10.544;2023-07-30T01:02:05;19.60;99.90
7530;DHT22;3806;52.270;10.544;2023-07-30T01:04:31;19.60;99.90
7530;DHT22;3806;52.270;10.544;2023-07-30T01:06:57;19.60;99.90
7530;DHT22;3806;52.270;10.544;2023-07-30T01:09:23;19.60;99.90
7530;DHT22;3806;52.270;10.544;2023-07-30T01:11:49;19.60;99.90
7530;DHT22;3806;52.270;10.544;2023-07-30T01:14:16;19.50;99.90
7530;DHT22;3806;52.270;10.544;2023-07-30T01:16:42;19.50;99.90
7530;DHT22;3806;52.270;10.544;2023-07-30T01:19:07;19.50;99.90
7530;DHT22;3806;52.270;10.544;2023-07-30T01:21:34;19.40;99.90
7530;DHT22;3806;52.270;10.544;2023-07-30T01:23:59;19.40;99.90
7530;DHT22;3806;52.270;10.544;2023-07-30T01:26:32;19.40;99.90
7530;DHT22;3806;52.270;10.544;2023-07-30T01:29:01;19.40;99.90
7530;DHT22;3806;52.270;10.544;2023-07-30T01:31:30;19.40;99.90
7530;DHT22;3806;52.270;10.544;2023-07-30T01:33:56;19.50;99.90
7530;DHT22;3806;52.270;10.544;2023-07-30T01:36:22;19.40;99.90
7530;DHT22;3806;52.270;10.544;2023-07-30T01:38:49;19.40;99.90
7530;DHT22;3806;52.270;10.544;2023-07-30T01:41:15;19.40;99.90
7530;DHT22;3806;52.270;10.544;2023-07-30T01:43:41;19.40;99.90
7530;DHT22;3806;52.270;10.544;2023-07-30T01:46:06;19.40;99.90
7530;DHT22;3806;52.270;10.544;2023-07-30T01:48:32;19.30;99.90
7530;DHT22;3806;52.270;10.544;2023-07-30T01:50:57;19.30;99.90
7530;DHT22;3806;52.270;10.544;2023-07-30T01:53:23;19.30;99.90
7530;DHT22;3806;52.270;10.544;2023-07-30T01:55:48;19.30;99.90
7530;DHT22;3806;52.270;10.544;2023-07-30T01:58:14;19.30;99.90
7530;DHT22;3806;52.270;10.544;2023-07-30T02:00:40;19.30;99.90
7530;DHT22;3806;52.270;10.544;2023-07-30T02:03:06;19.30;99.90
7530;DHT22;3806;52.270;10.544;2023-07-30T02:05:31;19.30;99.90
7530;DHT22;3806;52.270;10.544;2023-07-30T02:07:58;19.30;99.90
7530;DHT22;3806;52.270;10.544;2023-07-30T02:10:24;19.30;99.90
7530;DHT22;3806;52.270;10.544;2023-07-30T02:12:50;19.30;99.90
7530;DHT22;3806;52.270;10.544;2023-07-30T02:15:15;19.40;99.90
7530;DHT22;3806;52.270;10.544;2023-07-30T02:17:41;19.40;99.90
7530;DHT22;3806;52.270;10.544;2023-07-30T02:20:07;19.40;99.90
7530;DHT22;3806;52.270;10.544;2023-07-30T02:22:33;19.40;99.90
7530;DHT22;3806;52.270;10.544;2023-07-30T02:24:58;19.50;99.90
7530;DHT22;3806;52.270;10.544;2023-07-30T02:27:24;19.50;99.90
7530;DHT22;3806;52.270;10.544;2023-07-30T02:29:49;19.50;99.90
7530;DHT22;3806;52.270;10.544;2023-07-30T02:32:15;19.50;99.90
7530;DHT22;3806;52.270;10.544;2023-07-30T02:34:41;19.50;99.90
7530;DHT22;3806;52.270;10.544;2023-07-30T02:37:09;19.40;99.90
7530;DHT22;3806;52.270;10.544;2023-07-30T02:39:34;19.40;99.90
7530;DHT22;3806;52.270;10.544;2023-07-30T02:42:00;19.40;99.90
7530;DHT22;3806;52.270;10.544;2023-07-30T02:44:25;19.40;99.90
7530;DHT22;3806;52.270;10.544;2023-07-30T02:46:51;19.40;99.90
7530;DHT22;3806;52.270;10.544;2023-07-30T02:49:16;19.40;99.90
7530;DHT22;3806;52.270;10.544;2023-07-30T02:51:42;19.40;99.90
7530;DHT22;3806;52.270;10.544;2023-07-30T02:54:13;19.40;99.90
7530;DHT22;3806;52.270;10.544;2023-07-30T02:56:39;19.40;99.90
7530;DHT22;3806;52.270;10.544;2023-07-30T02:59:05;19.40;99.90
7530;DHT22;3806;52.270;10.544;2023-07-30T03:01:30;19.40;99.90
7530;DHT22;3806;52.270;10.544;2023-07-30T03:03:56;19.40;99.90
7530;DHT22;3806;52.270;10.544;2023-07-30T03:06:21;19.40;99.90
7530;DHT22;3806;52.270;10.544;2023-07-30T03:08:47;19.40;99.90
7530;DHT22;3806;52.270;10.544;2023-07-30T03:11:12;19.40;99.90
7530;DHT22;3806;52.270;10.544;2023-07-30T03:13:39;19.30;99.90
7530;DHT22;3806;52.270;10.544;2023-07-30T03:16:04;19.30;99.90
7530;DHT22;3806;52.270;10.544;2023-07-30T03:18:30;19.30;99.90
7530;DHT22;3806;52.270;10.544;2023-07-30T03:21:02;19.20;99.90
7530;DHT22;3806;52.270;10.544;2023-07-30T03:23:28;19.20;99.90
7530;DHT22;3806;52.270;10.544;2023-07-30T03:25:54;19.20;99.90
7530;DHT22;3806;52.270;10.544;2023-07-30T03:28:20;19.20;99.90
7530;DHT22;3806;52.270;10.544;2023-07-30T03:30:45;19.10;99.90
7530;DHT22;3806;52.270;10.544;2023-07-30T03:33:11;19.10;99.90
7530;DHT22;3806;52.270;10.544;2023-07-30T03:35:36;19.10;99.90
7530;DHT22;3806;52.270;10.544;2023-07-30T03:38:02;19.10;99.90
7530;DHT22;3806;52.270;10.544;2023-07-30T03:40:29;19.10;99.90
7530;DHT22;3806;52.270;10.544;2023-07-30T03:42:54;19.00;99.90
7530;DHT22;3806;52.270;10.544;2023-07-30T03:45:20;19.00;99.90
7530;DHT22;3806;52.270;10.544;2023-07-30T03:47:45;19.00;99.90
7530;DHT22;3806;52.270;10.544;2023-07-30T03:50:11;18.90;99.90
7530;DHT22;3806;52.270;10.544;2023-07-30T03:52:37;18.90;99.90
7530;DHT22;3806;52.270;10.544;2023-07-30T03:55:02;18.90;99.90
7530;DHT22;3806;52.270;10.544;2023-07-30T03:57:28;18.90;99.90
7530;DHT22;3806;52.270;10.544;2023-07-30T03:59:53;18.90;99.90
7530;DHT22;3806;52.270;10.544;2023-07-30T04:02:19;18.90;99.90
7530;DHT22;3806;52.270;10.544;2023-07-30T04:04:44;18.90;99.90
7530;DHT22;3806;52.270;10.544;2023-07-30T04:07:11;18.90;99.90
7530;DHT22;3806;52.270;10.544;2023-07-30T04:09:37;18.90;99.90
7530;DHT22;3806;52.270;10.544;2023-07-30T04:12:02;18.80;99.90
7530;DHT22;3806;52.270;10.544;2023-07-30T04:14:28;18.80;99.90
7530;DHT22;3806;52.270;10.544;2023-07-30T04:16:53;18.80;99.90
7530;DHT22;3806;52.270;10.544;2023-07-30T04:19:19;18.80;99.90
7530;DHT22;3806;52.270;10.544;2023-07-30T04:21:45;18.80;99.90
7530;DHT22;3806;52.270;10.544;2023-07-30T04:24:10;18.80;99.90
7530;DHT22;3806;52.270;10.544;2023-07-30T04:26:36;18.80;99.90
7530;DHT22;3806;52.270;10.544;2023-07-30T04:29:02;18.80;99.90
7530;DHT22;3806;52.270;10.544;2023-07-30T04:31:27;18.80;99.90
7530;DHT22;3806;52.270;10.544;2023-07-30T04:33:53;18.80;99.90
7530;DHT22;3806;52.270;10.544;2023-07-30T04:36:18;18.80;99.90
7530;DHT22;3806;52.270;10.544;2023-07-30T04:38:44;18.80;99.90
7530;DHT22;3806;52.270;10.544;2023-07-30T04:41:09;18.90;99.90
7530;DHT22;3806;52.270;10.544;2023-07-30T04:43:38;18.90;99.90
7530;DHT22;3806;52.270;10.544;2023-07-30T04:46:03;19.00;99.90
7530;DHT22;3806;52.270;10.544;2023-07-30T04:48:29;19.20;99.90
7530;DHT22;3806;52.270;10.544;2023-07-30T04:50:54;19.30;99.90
7530;DHT22;3806;52.270;10.544;2023-07-30T04:53:20;19.70;99.90
7530;DHT22;3806;52.270;10.544;2023-07-30T04:55:46;20.10;99.90
7530;DHT22;3806;52.270;10.544;2023-07-30T04:58:11;20.40;99.90
7530;DHT22;3806;52.270;10.544;2023-07-30T05:00:37;20.80;99.90
7530;DHT22;3806;52.270;10.544;2023-07-30T05:03:05;21.20;99.90
7530;DHT22;3806;52.270;10.544;2023-07-30T05:05:31;21.30;99.90
7530;DHT22;3806;52.270;10.544;2023-07-30T05:07:56;21.40;99.90
7530;DHT22;3806;52.270;10.544;2023-07-30T05:10:22;21.30;99.90
7530;DHT22;3806;52.270;10.544;2023-07-30T05:12:47;21.20;99.90
7530;DHT22;3806;52.270;10.544;2023-07-30T05:15:13;21.10;99.90
7530;DHT22;3806;52.270;10.544;2023-07-30T05:17:38;21.10;99.90
7530;DHT22;3806;52.270;10.544;2023-07-30T05:20:04;21.00;99.90
7530;DHT22;3806;52.270;10.544;2023-07-30T05:22:30;21.00;99.90
7530;DHT22;3806;52.270;10.544;2023-07-30T05:24:55;21.10;99.90
7530;DHT22;3806;52.270;10.544;2023-07-30T05:27:21;21.60;99.90
7530;DHT22;3806;52.270;10.544;2023-07-30T05:29:47;22.60;99.90
7530;DHT22;3806;52.270;10.544;2023-07-30T05:32:12;23.40;98.50
7530;DHT22;3806;52.270;10.544;2023-07-30T05:34:38;24.20;97.50
7530;DHT22;3806;52.270;10.544;2023-07-30T05:37:03;25.20;95.80
7530;DHT22;3806;52.270;10.544;2023-07-30T05:39:29;26.20;92.60
7530;DHT22;3806;52.270;10.544;2023-07-30T05:41:54;27.10;90.60
7530;DHT22;3806;52.270;10.544;2023-07-30T05:44:20;28.20;84.80
7530;DHT22;3806;52.270;10.544;2023-07-30T05:46:45;29.20;79.30
7530;DHT22;3806;52.270;10.544;2023-07-30T05:49:11;30.20;73.30
7530;DHT22;3806;52.270;10.544;2023-07-30T05:51:37;31.10;67.90
7530;DHT22;3806;52.270;10.544;2023-07-30T05:54:02;31.70;61.30
7530;DHT22;3806;52.270;10.544;2023-07-30T05:56:28;32.00;58.40
7530;DHT22;3806;52.270;10.544;2023-07-30T05:58:53;32.20;56.20
7530;DHT22;3806;52.270;10.544;2023-07-30T06:01:19;32.40;55.30
7530;DHT22;3806;52.270;10.544;2023-07-30T06:03:45;33.00;54.30
7530;DHT22;3806;52.270;10.544;2023-07-30T06:06:10;33.50;52.50
7530;DHT22;3806;52.270;10.544;2023-07-30T06:08:36;33.80;50.70
7530;DHT22;3806;52.270;10.544;2023-07-30T06:11:02;33.90;49.40
7530;DHT22;3806;52.270;10.544;2023-07-30T06:13:29;33.70;48.90
7530;DHT22;3806;52.270;10.544;2023-07-30T06:15:54;33.80;48.60
7530;DHT22;3806;52.270;10.544;2023-07-30T06:18:20;34.00;47.50
7530;DHT22;3806;52.270;10.544;2023-07-30T06:20:46;34.00;47.10
7530;DHT22;3806;52.270;10.544;2023-07-30T06:23:11;33.80;47.30
7530;DHT22;3806;52.270;10.544;2023-07-30T06:25:37;34.10;47.10
7530;DHT22;3806;52.270;10.544;2023-07-30T06:28:03;34.50;46.00
7530;DHT22;3806;52.270;10.544;2023-07-30T06:30:29;34.60;45.10
7530;DHT22;3806;52.270;10.544;2023-07-30T06:32:54;34.20;44.80
7530;DHT22;3806;52.270;10.544;2023-07-30T06:35:20;33.60;45.70
7530;DHT22;3806;52.270;10.544;2023-07-30T06:37:45;32.80;46.40
7530;DHT22;3806;52.270;10.544;2023-07-30T06:40:11;31.80;47.60
7530;DHT22;3806;52.270;10.544;2023-07-30T06:42:36;31.00;49.30
7530;DHT22;3806;52.270;10.544;2023-07-30T06:45:02;30.20;51.10
7530;DHT22;3806;52.270;10.544;2023-07-30T06:47:28;29.50;52.40
7530;DHT22;3806;52.270;10.544;2023-07-30T06:49:53;28.90;53.50
7530;DHT22;3806;52.270;10.544;2023-07-30T06:52:19;28.40;55.30
7530;DHT22;3806;52.270;10.544;2023-07-30T06:54:45;28.50;55.80
7530;DHT22;3806;52.270;10.544;2023-07-30T06:57:11;28.70;56.00
7530;DHT22;3806;52.270;10.544;2023-07-30T06:59:36;29.00;55.70
7530;DHT22;3806;52.270;10.544;2023-07-30T07:02:02;29.30;54.80
7530;DHT22;3806;52.270;10.544;2023-07-30T07:04:27;29.40;53.90
7530;DHT22;3806;52.270;10.544;2023-07-30T07:06:53;29.50;54.10
7530;DHT22;3806;52.270;10.544;2023-07-30T07:09:18;29.70;53.70
7530;DHT22;3806;52.270;10.544;2023-07-30T07:11:44;30.00;52.60
7530;DHT22;3806;52.270;10.544;2023-07-30T07:14:09;30.20;52.20
7530;DHT22;3806;52.270;10.544;2023-07-30T07:16:35;30.20;52.00
7530;DHT22;3806;52.270;10.544;2023-07-30T07:19:00;30.20;52.20
7530;DHT22;3806;52.270;10.544;2023-07-30T07:21:26;30.30;51.40
7530;DHT22;3806;52.270;10.544;2023-07-30T07:23:52;30.20;50.50
7530;DHT22;3806;52.270;10.544;2023-07-30T07:26:17;30.10;50.10
7530;DHT22;3806;52.270;10.544;2023-07-30T07:28:43;30.00;49.80
7530;DHT22;3806;52.270;10.544;2023-07-30T07:31:08;29.90;49.70
7530;DHT22;3806;52.270;10.544;2023-07-30T07:33:34;29.90;50.10
7530;DHT22;3806;52.270;10.544;2023-07-30T07:36:06;29.90;49.20
7530;DHT22;3806;52.270;10.544;2023-07-30T07:38:33;29.80;48.20
7530;DHT22;3806;52.270;10.544;2023-07-30T07:41:00;29.70;47.30
7530;DHT22;3806;52.270;10.544;2023-07-30T07:43:26;29.60;47.10
7530;DHT22;3806;52.270;10.544;2023-07-30T07:45:52;29.50;47.10
7530;DHT22;3806;52.270;10.544;2023-07-30T07:48:17;29.40;47.60
7530;DHT22;3806;52.270;10.544;2023-07-30T07:50:43;29.40;47.00
7530;DHT22;3806;52.270;10.544;2023-07-30T07:53:08;29.50;46.80
7530;DHT22;3806;52.270;10.544;2023-07-30T07:55:34;29.60;46.40
7530;DHT22;3806;52.270;10.544;2023-07-30T07:58:00;29.70;46.20
7530;DHT22;3806;52.270;10.544;2023-07-30T08:00:25;29.70;45.30
7530;DHT22;3806;52.270;10.544;2023-07-30T08:02:51;29.70;45.40
7530;DHT22;3806;52.270;10.544;2023-07-30T08:05:16;29.60;44.90
7530;DHT22;3806;52.270;10.544;2023-07-30T08:07:45;29.60;45.80
7530;DHT22;3806;52.270;10.544;2023-07-30T08:10:11;29.70;46.20
7530;DHT22;3806;52.270;10.544;2023-07-30T08:12:37;29.80;45.40
7530;DHT22;3806;52.270;10.544;2023-07-30T08:15:02;29.80;44.00
7530;DHT22;3806;52.270;10.544;2023-07-30T08:17:28;29.60;44.40
7530;DHT22;3806;52.270;10.544;2023-07-30T08:19:54;29.50;44.60
7530;DHT22;3806;52.270;10.544;2023-07-30T08:22:20;29.40;45.30
7530;DHT22;3806;52.270;10.544;2023-07-30T08:24:45;29.30;46.00
7530;DHT22;3806;52.270;10.544;2023-07-30T08:27:11;29.30;46.60
7530;DHT22;3806;52.270;10.544;2023-07-30T08:29:36;29.60;47.00
7530;DHT22;3806;52.270;10.544;2023-07-30T08:32:02;29.70;46.40
7530;DHT22;3806;52.270;10.544;2023-07-30T08:34:27;29.80;45.60
7530;DHT22;3806;52.270;10.544;2023-07-30T08:36:53;29.70;45.50
7530;DHT22;3806;52.270;10.544;2023-07-30T08:39:18;29.70;45.80
7530;DHT22;3806;52.270;10.544;2023-07-30T08:41:45;29.80;45.90
7530;DHT22;3806;52.270;10.544;2023-07-30T08:44:12;29.90;45.10
7530;DHT22;3806;52.270;10.544;2023-07-30T08:46:38;29.90;45.30
7530;DHT22;3806;52.270;10.544;2023-07-30T08:49:04;29.90;45.20
7530;DHT22;3806;52.270;10.544;2023-07-30T08:51:31;29.70;45.10
7530;DHT22;3806;52.270;10.544;2023-07-30T08:54:00;29.60;45.10
7530;DHT22;3806;52.270;10.544;2023-07-30T08:56:26;29.50;45.50
7530;DHT22;3806;52.270;10.544;2023-07-30T08:58:53;29.40;45.40
7530;DHT22;3806;52.270;10.544;2023-07-30T09:01:23;29.30;45.10
7530;DHT22;3806;52.270;10.544;2023-07-30T09:03:52;29.10;45.30
7530;DHT22;3806;52.270;10.544;2023-07-30T09:06:18;29.00;46.00
7530;DHT22;3806;52.270;10.544;2023-07-30T09:08:43;28.90;46.50
7530;DHT22;3806;52.270;10.544;2023-07-30T09:11:09;28.90;46.90
7530;DHT22;3806;52.270;10.544;2023-07-30T09:13:39;28.90;46.80
7530;DHT22;3806;52.270;10.544;2023-07-30T09:16:12;29.00;47.00
7530;DHT22;3806;52.270;10.544;2023-07-30T09:18:42;28.90;46.30
7530;DHT22;3806;52.270;10.544;2023-07-30T09:21:10;28.80;46.40
7530;DHT22;3806;52.270;10.544;2023-07-30T09:23:43;28.70;47.20
7530;DHT22;3806;52.270;10.544;2023-07-30T09:26:09;28.70;47.90
7530;DHT22;3806;52.270;10.544;2023-07-30T09:28:35;28.70;46.10
7530;DHT22;3806;52.270;10.544;2023-07-30T09:31:02;28.70;46.50
7530;DHT22;3806;52.270;10.544;2023-07-30T09:33:28;28.80;46.70
7530;DHT22;3806;52.270;10.544;2023-07-30T09:35:53;28.90;46.00
7530;DHT22;3806;52.270;10.544;2023-07-30T09:38:20;29.00;46.10
7530;DHT22;3806;52.270;10.544;2023-07-30T09:40:46;29.00;45.60
7530;DHT22;3806;52.270;10.544;2023-07-30T09:43:15;29.00;44.80
7530;DHT22;3806;52.270;10.544;2023-07-30T09:45:44;28.70;45.00
7530;DHT22;3806;52.270;10.544;2023-07-30T09:48:11;28.50;45.60
7530;DHT22;3806;52.270;10.544;2023-07-30T09:50:37;28.40;46.10
7530;DHT22;3806;52.270;10.544;2023-07-30T09:53:03;28.20;45.80
7530;DHT22;3806;52.270;10.544;2023-07-30T09:55:29;28.20;46.00
7530;DHT22;3806;52.270;10.544;2023-07-30T09:57:55;28.20;46.00
7530;DHT22;3806;52.270;10.544;2023-07-30T10:00:20;28.10;46.00
7530;DHT22;3806;52.270;10.544;2023-07-30T10:02:49;28.20;46.20
7530;DHT22;3806;52.270;10.544;2023-07-30T10:05:17;28.20;46.10
7530;DHT22;3806;52.270;10.544;2023-07-30T10:08:02;28.20;45.70
7530;DHT22;3806;52.270;10.544;2023-07-30T10:10:29;28.10;46.10
7530;DHT22;3806;52.270;10.544;2023-07-30T10:13:01;28.20;46.00
7530;DHT22;3806;52.270;10.544;2023-07-30T10:15:28;28.00;45.20
7530;DHT22;3806;52.270;10.544;2023-07-30T10:17:57;27.80;45.90
7530;DHT22;3806;52.270;10.544;2023-07-30T10:20:28;27.70;46.60
7530;DHT22;3806;52.270;10.544;2023-07-30T10:22:57;27.50;46.80
7530;DHT22;3806;52.270;10.544;2023-07-30T10:25:29;27.40;47.40
7530;DHT22;3806;52.270;10.544;2023-07-30T10:27:55;27.40;48.10
7530;DHT22;3806;52.270;10.544;2023-07-30T10:30:21;27.40;47.50
7530;DHT22;3806;52.270;10.544;2023-07-30T10:35:38;27.30;47.50
7530;DHT22;3806;52.270;10.544;2023-07-30T10:38:29;27.10;47.60
7530;DHT22;3806;52.270;10.544;2023-07-30T10:41:14;26.80;48.20
7530;DHT22;3806;52.270;10.544;2023-07-30T10:43:49;26.30;48.90
7530;DHT22;3806;52.270;10.544;2023-07-30T10:46:18;26.00;49.80
7530;DHT22;3806;52.270;10.544;2023-07-30T10:48:48;25.70;50.70
7530;DHT22;3806;52.270;10.544;2023-07-30T10:51:18;25.40;51.30
7530;DHT22;3806;52.270;10.544;2023-07-30T10:53:45;25.10;52.00
7530;DHT22;3806;52.270;10.544;2023-07-30T10:56:12;24.80;52.70
7530;DHT22;3806;52.270;10.544;2023-07-30T10:58:38;24.60;53.30
7530;DHT22;3806;52.270;10.544;2023-07-30T11:01:08;24.50;53.90
7530;DHT22;3806;52.270;10.544;2023-07-30T11:03:34;24.40;54.30
7530;DHT22;3806;52.270;10.544;2023-07-30T11:06:00;24.30;54.30
7530;DHT22;3806;52.270;10.544;2023-07-30T11:08:37;24.20;54.50
7530;DHT22;3806;52.270;10.544;2023-07-30T11:11:04;24.20;55.00
7530;DHT22;3806;52.270;10.544;2023-07-30T11:13:29;24.20;55.60
7530;DHT22;3806;52.270;10.544;2023-07-30T11:15:55;24.30;55.60
7530;DHT22;3806;52.270;10.544;2023-07-30T11:18:20;24.40;55.70
7530;DHT22;3806;52.270;10.544;2023-07-30T11:20:46;24.50;55.40
7530;DHT22;3806;52.270;10.544;2023-07-30T11:23:19;24.50;55.20
7530;DHT22;3806;52.270;10.544;2023-07-30T11:25:46;24.50;55.30
7530;DHT22;3806;52.270;10.544;2023-07-30T11:28:13;24.40;55.50
7530;DHT22;3806;52.270;10.544;2023-07-30T11:30:38;24.40;56.10
7530;DHT22;3806;52.270;10.544;2023-07-30T11:33:04;24.30;56.40
7530;DHT22;3806;52.270;10.544;2023-07-30T11:35:30;24.20;56.20
7530;DHT22;3806;52.270;10.544;2023-07-30T11:37:56;24.10;56.90
7530;DHT22;3806;52.270;10.544;2023-07-30T11:40:23;24.00;56.90
7530;DHT22;3806;52.270;10.544;2023-07-30T11:42:49;23.90;56.70
7530;DHT22;3806;52.270;10.544;2023-07-30T11:45:22;23.80;57.40
7530;DHT22;3806;52.270;10.544;2023-07-30T11:47:48;23.80;58.00
7530;DHT22;3806;52.270;10.544;2023-07-30T11:50:15;23.70;57.80
7530;DHT22;3806;52.270;10.544;2023-07-30T11:52:54;23.70;58.00
7530;DHT22;3806;52.270;10.544;2023-07-30T11:55:20;23.60;58.30
7530;DHT22;3806;52.270;10.544;2023-07-30T11:57:46;23.40;59.20
7530;DHT22;3806;52.270;10.544;2023-07-30T12:00:12;23.40;59.50
7530;DHT22;3806;52.270;10.544;2023-07-30T12:02:38;23.50;59.80
7530;DHT22;3806;52.270;10.544;2023-07-30T12:05:04;23.60;60.10
7530;DHT22;3806;52.270;10.544;2023-07-30T12:07:32;23.70;60.00
7530;DHT22;3806;52.270;10.544;2023-07-30T12:10:09;23.90;59.80
7530;DHT22;3806;52.270;10.544;2023-07-30T12:12:35;24.00;59.90
7530;DHT22;3806;52.270;10.544;2023-07-30T12:15:01;24.00;59.60
7530;DHT22;3806;52.270;10.544;2023-07-30T12:17:26;23.90;60.00
7530;DHT22;3806;52.270;10.544;2023-07-30T12:19:52;23.90;60.60
7530;DHT22;3806;52.270;10.544;2023-07-30T12:22:17;23.80;60.90
7530;DHT22;3806;52.270;10.544;2023-07-30T12:24:43;23.80;61.90
7530;DHT22;3806;52.270;10.544;2023-07-30T12:27:08;23.90;61.40
7530;DHT22;3806;52.270;10.544;2023-07-30T12:29:34;23.90;61.80
7530;DHT22;3806;52.270;10.544;2023-07-30T12:31:59;24.00;62.20
7530;DHT22;3806;52.270;10.544;2023-07-30T12:34:25;24.20;61.50
7530;DHT22;3806;52.270;10.544;2023-07-30T12:36:51;24.40;60.90
7530;DHT22;3806;52.270;10.544;2023-07-30T12:39:16;24.60;60.20
7530;DHT22;3806;52.270;10.544;2023-07-30T12:41:42;24.60;60.00
7530;DHT22;3806;52.270;10.544;2023-07-30T12:44:07;24.50;60.00
7530;DHT22;3806;52.270;10.544;2023-07-30T12:46:34;24.60;60.30
7530;DHT22;3806;52.270;10.544;2023-07-30T12:49:00;24.60;59.60
7530;DHT22;3806;52.270;10.544;2023-07-30T12:51:29;24.80;60.20
7530;DHT22;3806;52.270;10.544;2023-07-30T12:53:55;24.90;61.30
7530;DHT22;3806;52.270;10.544;2023-07-30T12:56:20;24.90;61.40
7530;DHT22;3806;52.270;10.544;2023-07-30T12:58:46;25.00;61.60
7530;DHT22;3806;52.270;10.544;2023-07-30T13:01:11;25.00;61.40
7530;DHT22;3806;52.270;10.544;2023-07-30T13:03:37;25.00;61.00
7530;DHT22;3806;52.270;10.544;2023-07-30T13:06:04;25.00;61.00
7530;DHT22;3806;52.270;10.544;2023-07-30T13:08:29;25.10;60.90
7530;DHT22;3806;52.270;10.544;2023-07-30T13:10:55;25.20;59.70
7530;DHT22;3806;52.270;10.544;2023-07-30T13:13:21;25.30;59.30
7530;DHT22;3806;52.270;10.544;2023-07-30T13:15:46;25.40;59.00
7530;DHT22;3806;52.270;10.544;2023-07-30T13:18:12;25.40;58.70
7530;DHT22;3806;52.270;10.544;2023-07-30T13:20:37;25.50;58.70
7530;DHT22;3806;52.270;10.544;2023-07-30T13:23:03;25.40;56.80
7530;DHT22;3806;52.270;10.544;2023-07-30T13:25:28;25.40;57.30
7530;DHT22;3806;52.270;10.544;2023-07-30T13:27:54;25.40;56.60
7530;DHT22;3806;52.270;10.544;2023-07-30T13:30:20;25.40;55.20
7530;DHT22;3806;52.270;10.544;2023-07-30T13:32:45;25.40;55.40
7530;DHT22;3806;52.270;10.544;2023-07-30T13:35:11;25.50;55.60
7530;DHT22;3806;52.270;10.544;2023-07-30T13:37:36;25.60;55.60
7530;DHT22;3806;52.270;10.544;2023-07-30T13:40:02;25.70;56.40
7530;DHT22;3806;52.270;10.544;2023-07-30T13:42:27;25.80;56.50
7530;DHT22;3806;52.270;10.544;2023-07-30T13:44:53;25.80;55.90
7530;DHT22;3806;52.270;10.544;2023-07-30T13:47:18;25.80;55.70
7530;DHT22;3806;52.270;10.544;2023-07-30T13:49:44;25.70;55.90
7530;DHT22;3806;52.270;10.544;2023-07-30T13:52:09;25.70;55.40
7530;DHT22;3806;52.270;10.544;2023-07-30T13:54:35;25.70;55.30
7530;DHT22;3806;52.270;10.544;2023-07-30T13:57:04;25.60;53.40
7530;DHT22;3806;52.270;10.544;2023-07-30T13:59:30;25.50;54.00
7530;DHT22;3806;52.270;10.544;2023-07-30T14:01:56;25.50;54.60
7530;DHT22;3806;52.270;10.544;2023-07-30T14:04:21;25.50;54.10
7530;DHT22;3806;52.270;10.544;2023-07-30T14:06:47;25.50;54.40
7530;DHT22;3806;52.270;10.544;2023-07-30T14:09:12;25.40;53.20
7530;DHT22;3806;52.270;10.544;2023-07-30T14:11:38;25.30;54.40
7530;DHT22;3806;52.270;10.544;2023-07-30T14:14:06;25.30;54.60
7530;DHT22;3806;52.270;10.544;2023-07-30T14:16:31;25.30;54.50
7530;DHT22;3806;52.270;10.544;2023-07-30T14:18:57;25.20;54.10
7530;DHT22;3806;52.270;10.544;2023-07-30T14:21:22;25.10;53.00
7530;DHT22;3806;52.270;10.544;2023-07-30T14:23:48;25.00;53.10
7530;DHT22;3806;52.270;10.544;2023-07-30T14:26:13;25.00;53.10
7530;DHT22;3806;52.270;10.544;2023-07-30T14:28:39;24.80;52.40
7530;DHT22;3806;52.270;10.544;2023-07-30T14:31:05;24.80;53.00
7530;DHT22;3806;52.270;10.544;2023-07-30T14:33:30;24.70;53.60
7530;DHT22;3806;52.270;10.544;2023-07-30T14:35:56;24.70;53.40
7530;DHT22;3806;52.270;10.544;2023-07-30T14:38:21;24.70;53.10
7530;DHT22;3806;52.270;10.544;2023-07-30T14:40:47;24.60;53.60
7530;DHT22;3806;52.270;10.544;2023-07-30T14:43:12;24.60;54.30
7530;DHT22;3806;52.270;10.544;2023-07-30T14:45:38;24.60;54.50
7530;DHT22;3806;52.270;10.544;2023-07-30T14:48:03;24.60;54.90
7530;DHT22;3806;52.270;10.544;2023-07-30T14:50:29;24.60;54.60
7530;DHT22;3806;52.270;10.544;2023-07-30T14:52:55;24.70;54.00
7530;DHT22;3806;52.270;10.544;2023-07-30T14:55:23;24.70;53.30
7530;DHT22;3806;52.270;10.544;2023-07-30T14:57:49;24.70;53.00
7530;DHT22;3806;52.270;10.544;2023-07-30T15:00:14;24.70;53.10
7530;DHT22;3806;52.270;10.544;2023-07-30T15:02:43;24.60;53.20
7530;DHT22;3806;52.270;10.544;2023-07-30T15:05:08;24.50;53.70
7530;DHT22;3806;52.270;10.544;2023-07-30T15:07:34;24.40;54.00
7530;DHT22;3806;52.270;10.544;2023-07-30T15:10:00;24.30;54.50
7530;DHT22;3806;52.270;10.544;2023-07-30T15:12:26;24.20;54.70
7530;DHT22;3806;52.270;10.544;2023-07-30T15:14:51;24.20;55.00
7530;DHT22;3806;52.270;10.544;2023-07-30T15:17:16;24.20;55.10
7530;DHT22;3806;52.270;10.544;2023-07-30T15:19:42;24.10;55.30
7530;DHT22;3806;52.270;10.544;2023-07-30T15:22:12;24.20;55.70
7530;DHT22;3806;52.270;10.544;2023-07-30T15:24:38;24.20;55.60
7530;DHT22;3806;52.270;10.544;2023-07-30T15:27:04;24.30;55.00
7530;DHT22;3806;52.270;10.544;2023-07-30T15:29:29;24.30;54.80
7530;DHT22;3806;52.270;10.544;2023-07-30T15:31:58;24.30;54.10
7530;DHT22;3806;52.270;10.544;2023-07-30T15:34:23;24.30;54.30
7530;DHT22;3806;52.270;10.544;2023-07-30T15:36:49;24.20;54.00
7530;DHT22;3806;52.270;10.544;2023-07-30T15:39:14;24.20;54.30
7530;DHT22;3806;52.270;10.544;2023-07-30T15:41:40;24.10;53.90